Change the Weather History Date:

Saturday, March 15, 2014

  Actual Average Record
Temperature  
Mean Temperature 58 °F -  
Max Temperature 71 °F 61 °F 84 °F (2012)
Min Temperature 46 °F 40 °F 26 °F (2005)
Degree Days  
Heating Degree Days 6    
Growing Degree Days 8 (Base 50)    
Moisture  
Dew Point 39 °F    
Average Humidity 52    
Maximum Humidity 76    
Minimum Humidity 27    
Precipitation  
Precipitation 0.00 in - - ()
Sea Level Pressure  
Sea Level Pressure 30.05 in    
Wind  
Wind Speed 8 mph (SW)    
Max Wind Speed 17 mph    
Max Gust Speed 24 mph    
Visibility 10 miles    
Events      
Averages and records for this station are not official NWS values.
T = Trace of Precipitation, MM = Missing Value Source: NWS Daily Summary

Daily Weather History Graph

Daily Weather History Graph

Search for Another Location

Airport or City:

Trip Planner

Search our weather history database for the weather conditions in past years. The results will help you decide how hot, cold, wet, or windy it might be!

Date:

Astronomy

Mar. 15, 2014 Rise Set
Actual Time 7:21 AM EDT 7:18 PM EDT
Civil Twilight 6:55 AM EDT 7:43 PM EDT
Nautical Twilight 6:26 AM EDT 8:12 PM EDT
Astronomical Twilight 5:57 AM EDT 8:42 PM EDT
Moon 6:35 PM EDT (3/15) 6:30 AM EDT (3/15)
Length of Visible Light 12h 47m
Length of Day
11h 57m
Waxing Gibbous, 99% of the Moon is Illuminated
Mar 15
Waxing Gibbous
Mar 16
Full
Mar 23
Last Quarter
Mar 30
New
Apr 7
First Quarter

Hourly Weather History & Observations

Time (EDT) Temp. Windchill Dew Point Humidity Pressure Visibility Wind Dir Wind Speed Gust Speed Precip Events Conditions
12:15 AM 46.4 °F 42.9 °F 35.6 °F 66% 30.16 in 10.0 mi SSW 6.9 mph - N/A   Clear
12:35 AM 46.4 °F 43.5 °F 35.6 °F 66% 30.16 in 10.0 mi SSW 5.8 mph - N/A   Clear
12:55 AM 46.4 °F 44.3 °F 37.4 °F 71% 30.16 in 10.0 mi SSW 4.6 mph - N/A   Clear
1:15 AM 46.4 °F 43.5 °F 37.4 °F 71% 30.15 in 10.0 mi SSW 5.8 mph - N/A   Clear
1:35 AM 46.4 °F 43.5 °F 37.4 °F 71% 30.14 in 10.0 mi SSW 5.8 mph - N/A   Clear
1:55 AM 46.4 °F 44.3 °F 37.4 °F 71% 30.15 in 10.0 mi SSW 4.6 mph - N/A   Clear
2:15 AM 46.4 °F 42.9 °F 39.2 °F 76% 30.13 in 10.0 mi South 6.9 mph - N/A   Clear
2:35 AM 48.2 °F - 39.2 °F 71% 30.12 in 10.0 mi South 8.1 mph - N/A   Clear
2:55 AM 48.2 °F - 41.0 °F 76% 30.12 in 10.0 mi SSW 9.2 mph - N/A   Clear
3:15 AM 50.0 °F - 41.0 °F 71% 30.11 in 10.0 mi SSW 6.9 mph - N/A   Clear
3:35 AM 50.0 °F - 41.0 °F 71% 30.10 in 10.0 mi SSW 8.1 mph - N/A   Partly Cloudy
3:55 AM 51.8 °F - 42.8 °F 71% 30.09 in 10.0 mi SSW 6.9 mph - N/A   Clear
4:15 AM 51.8 °F - 42.8 °F 71% 30.09 in 10.0 mi SSW 8.1 mph - N/A   Clear
4:35 AM 51.8 °F - 42.8 °F 71% 30.09 in 10.0 mi SSW 8.1 mph - N/A   Clear
4:55 AM 50.0 °F - 42.8 °F 76% 30.08 in 10.0 mi SSW 6.9 mph - N/A   Clear
5:15 AM 51.8 °F - 42.8 °F 71% 30.07 in 10.0 mi SSW 8.1 mph - N/A   Mostly Cloudy
5:35 AM 51.8 °F - 42.8 °F 71% 30.07 in 10.0 mi SSW 8.1 mph - N/A   Overcast
5:55 AM 51.8 °F - 42.8 °F 71% 30.07 in 10.0 mi SSW 6.9 mph - N/A   Overcast
6:15 AM 51.8 °F - 42.8 °F 71% 30.07 in 10.0 mi SW 8.1 mph - N/A   Overcast
6:35 AM 53.6 °F - 42.8 °F 67% 30.07 in 10.0 mi SW 6.9 mph - N/A   Overcast
6:55 AM 53.6 °F - 44.6 °F 72% 30.07 in 10.0 mi SW 6.9 mph - N/A   Overcast
7:15 AM 53.6 °F - 44.6 °F 72% 30.07 in 10.0 mi SW 8.1 mph - N/A   Mostly Cloudy
7:35 AM 53.6 °F - 44.6 °F 72% 30.07 in 10.0 mi SSW 6.9 mph - N/A   Overcast
7:55 AM 51.8 °F - 42.8 °F 71% 30.07 in 10.0 mi SW 6.9 mph - N/A   Mostly Cloudy
8:15 AM 53.6 °F - 44.6 °F 72% 30.07 in 10.0 mi SSW 8.1 mph - N/A   Overcast
8:35 AM 55.4 °F - 44.6 °F 67% 30.08 in 10.0 mi SW 10.4 mph - N/A   Mostly Cloudy
8:55 AM 57.2 °F - 44.6 °F 63% 30.08 in 10.0 mi SW 10.4 mph - N/A   Partly Cloudy
9:15 AM 59.0 °F - 44.6 °F 59% 30.08 in 10.0 mi SW 10.4 mph - N/A   Clear
9:35 AM 60.8 °F - 42.8 °F 52% 30.08 in 10.0 mi SW 10.4 mph 18.4 mph N/A   Clear
9:55 AM 62.6 °F - 41.0 °F 45% 30.08 in 10.0 mi WSW 12.7 mph 19.6 mph N/A   Clear
10:15 AM 62.6 °F - 39.2 °F 42% 30.08 in 10.0 mi SW 10.4 mph 18.4 mph N/A   Clear
10:35 AM 64.4 °F - 39.2 °F 40% 30.08 in 10.0 mi SW 17.3 mph 21.9 mph N/A   Clear
10:55 AM 64.4 °F - 37.4 °F 37% 30.08 in 10.0 mi SW 10.4 mph 24.2 mph N/A   Clear
11:15 AM 66.2 °F - 39.2 °F 37% 30.08 in 10.0 mi WSW 12.7 mph 17.3 mph N/A   Clear
11:35 AM 66.2 °F - 39.2 °F 37% 30.08 in 10.0 mi SW 12.7 mph 20.7 mph N/A   Clear
11:55 AM 68.0 °F - 37.4 °F 33% 30.08 in 10.0 mi WSW 6.9 mph 16.1 mph N/A   Clear
12:15 PM 69.8 °F - 39.2 °F 33% 30.07 in 10.0 mi WSW 10.4 mph - N/A   Clear
12:35 PM 69.8 °F - 39.2 °F 33% 30.06 in 10.0 mi West 9.2 mph 17.3 mph N/A   Clear
12:55 PM 69.8 °F - 37.4 °F 31% 30.05 in 10.0 mi SSW 11.5 mph - N/A   Clear
1:15 PM 71.6 °F - 37.4 °F 29% 30.04 in 10.0 mi WSW 11.5 mph 19.6 mph N/A   Clear
1:35 PM 71.6 °F - 37.4 °F 29% 30.03 in 10.0 mi WSW 6.9 mph 16.1 mph N/A   Clear
1:55 PM 71.6 °F - 37.4 °F 29% 30.03 in 10.0 mi SW 15.0 mph 23.0 mph N/A   Clear
2:15 PM 71.6 °F - 37.4 °F 29% 30.01 in 10.0 mi SW 13.8 mph 20.7 mph N/A   Clear
2:35 PM 71.6 °F - 37.4 °F 29% 30.00 in 10.0 mi SW 12.7 mph 19.6 mph N/A   Clear
2:55 PM 71.6 °F - 37.4 °F 29% 29.99 in 10.0 mi WSW 15.0 mph 23.0 mph N/A   Clear
3:15 PM 71.6 °F - 37.4 °F 29% 29.99 in 10.0 mi WSW 13.8 mph 18.4 mph N/A   Clear
3:35 PM 71.6 °F - 37.4 °F 29% 29.98 in 10.0 mi WSW 8.1 mph 24.2 mph N/A   Clear
3:55 PM 71.6 °F - 35.6 °F 27% 29.98 in 10.0 mi WSW 13.8 mph 24.2 mph N/A   Clear
4:15 PM 71.6 °F - 37.4 °F 29% 29.97 in 10.0 mi WSW 10.4 mph 21.9 mph N/A   Clear
4:35 PM 71.6 °F - 37.4 °F 29% 29.96 in 10.0 mi WSW 11.5 mph - N/A   Clear
4:55 PM 71.6 °F - 37.4 °F 29% 29.96 in 10.0 mi SW 11.5 mph - N/A   Clear
5:15 PM 71.6 °F - 35.6 °F 27% 29.96 in 10.0 mi SW 13.8 mph 18.4 mph N/A   Clear
5:35 PM 71.6 °F - 37.4 °F 29% 29.96 in 10.0 mi WSW 12.7 mph 17.3 mph N/A   Clear
5:55 PM 71.6 °F - 35.6 °F 27% 29.97 in 10.0 mi WSW 11.5 mph 20.7 mph N/A   Clear
6:15 PM 69.8 °F - 35.6 °F 28% 29.97 in 10.0 mi WSW 8.1 mph - N/A   Clear
6:35 PM 69.8 °F - 35.6 °F 28% 29.98 in 10.0 mi WSW 9.2 mph - N/A   Clear
6:55 PM 68.0 °F - 35.6 °F 30% 29.99 in 10.0 mi WSW 8.1 mph - N/A   Clear
7:15 PM 64.4 °F - 35.6 °F 34% 30.00 in 10.0 mi WSW 4.6 mph - N/A   Clear
7:35 PM 64.4 °F - 37.4 °F 37% 30.01 in 10.0 mi WSW 4.6 mph - N/A   Clear
7:55 PM 62.6 °F - 35.6 °F 37% 30.01 in 10.0 mi Calm Calm - N/A   Clear
8:15 PM 55.4 °F - 37.4 °F 51% 30.02 in 10.0 mi SW 3.5 mph - N/A   Clear
8:35 PM 55.4 °F - 39.2 °F 54% 30.02 in 10.0 mi Calm Calm - N/A   Clear
8:55 PM 55.4 °F - 39.2 °F 54% 30.03 in 10.0 mi Calm Calm - N/A   Clear
9:15 PM 51.8 °F - 39.2 °F 62% 30.03 in 10.0 mi Calm Calm - N/A   Clear
9:35 PM 53.6 °F - 39.2 °F 58% 30.04 in 10.0 mi Calm Calm - N/A   Clear
9:55 PM 51.8 °F - 37.4 °F 58% 30.05 in 10.0 mi Calm Calm - N/A   Clear
10:15 PM 48.2 °F - 37.4 °F 66% 30.06 in 10.0 mi Calm Calm - N/A   Clear
10:35 PM 50.0 °F - 37.4 °F 62% 30.06 in 10.0 mi Calm Calm - N/A   Clear
10:55 PM 48.2 °F - 39.2 °F 71% 30.06 in 10.0 mi Calm Calm - N/A   Clear
11:15 PM 46.4 °F - 39.2 °F 76% 30.06 in 10.0 mi Calm Calm - N/A   Clear
11:35 PM 46.4 °F - 37.4 °F 71% 30.05 in 10.0 mi Calm Calm - N/A   Clear
11:55 PM 46.4 °F - 37.4 °F 71% 30.05 in 10.0 mi Calm Calm - N/A   Clear